Hlavní strana
METAR-TAF:

METAR-TAF

Letiště :

Millington, Tennessee, Spojené státy americké

zeměpisná šířka: 35-21-24N, zeměpisná délka: 089-52-13W, výška: 98 m

Aktuální stav počasí

Zpráva byla vytvořena před 41 minutami, v 00:50 UTC
Bezvětří
Teplota 12°C
Vlhkost vzduchu 54%
Tlak 1016 hPa
Viditelnost: 16.1 km
Jasno

METAR: KNQA 200050Z 00000KT 10SM CLR 12/03 A3000

Čas: 19:31 (01:31 UTC)


TAF: chybějící

Stav a předpovědi počasí z více než 4 000 letišť (zprávy METAR a TAF).

Červené a žluté tečky na mapě představují dostupné meteorologické stanice.

Když kurzor umístíte na tečku, zobrazí se název stanice.

Pak kliknutím zobrazíte stav a předpověď počasí.

Chcete-li změnit mapu, kliknutím na zelené tlačítko se znaménkem +mapu přiblížíte, kliknutím na zelené tlačítko se znaménkem – mapu oddálíte a kliknutím na zelené šipky přejdete na sousední mapy.


METAR-TAF: